sensor_id;sensor_type;location;lat;lon;timestamp;pressure;altitude;pressure_sealevel;temperature;humidity
29941;BME280;16801;53.562;10.038;2023-05-20T00:02:53;102708.00;;;14.29;50.24
29941;BME280;16801;53.562;10.038;2023-05-20T00:06:16;102704.19;;;14.31;50.10
29941;BME280;16801;53.562;10.038;2023-05-20T00:09:38;102710.72;;;14.29;50.19
29941;BME280;16801;53.562;10.038;2023-05-20T00:12:59;102705.06;;;14.32;50.15
29941;BME280;16801;53.562;10.038;2023-05-20T00:16:21;102712.63;;;14.39;49.74
29941;BME280;16801;53.562;10.038;2023-05-20T00:19:42;102704.72;;;14.36;50.00
29941;BME280;16801;53.562;10.038;2023-05-20T00:23:04;102714.59;;;14.25;50.23
29941;BME280;16801;53.562;10.038;2023-05-20T00:26:27;102709.75;;;14.30;50.21
29941;BME280;16801;53.562;10.038;2023-05-20T00:29:50;102707.34;;;14.25;50.48
29941;BME280;16801;53.562;10.038;2023-05-20T00:33:12;102712.06;;;14.11;50.26
29941;BME280;16801;53.562;10.038;2023-05-20T00:36:33;102702.84;;;14.13;50.38
29941;BME280;16801;53.562;10.038;2023-05-20T00:39:54;102710.97;;;14.13;50.50
29941;BME280;16801;53.562;10.038;2023-05-20T00:43:15;102713.69;;;14.13;50.74
29941;BME280;16801;53.562;10.038;2023-05-20T00:46:36;102708.16;;;14.15;50.75
29941;BME280;16801;53.562;10.038;2023-05-20T00:49:59;102706.34;;;14.03;50.93
29941;BME280;16801;53.562;10.038;2023-05-20T00:53:20;102700.34;;;14.10;50.71
29941;BME280;16801;53.562;10.038;2023-05-20T00:56:41;102695.16;;;14.07;50.73
29941;BME280;16801;53.562;10.038;2023-05-20T01:00:04;102696.00;;;14.20;50.69
29941;BME280;16801;53.562;10.038;2023-05-20T01:03:28;102687.78;;;14.09;51.02
29941;BME280;16801;53.562;10.038;2023-05-20T01:06:50;102694.72;;;14.13;50.93
29941;BME280;16801;53.562;10.038;2023-05-20T01:10:11;102693.31;;;14.08;50.97
29941;BME280;16801;53.562;10.038;2023-05-20T01:13:37;102696.59;;;14.00;51.38
29941;BME280;16801;53.562;10.038;2023-05-20T01:17:01;102692.16;;;13.99;51.32
29941;BME280;16801;53.562;10.038;2023-05-20T01:20:29;102691.50;;;13.96;51.54
29941;BME280;16801;53.562;10.038;2023-05-20T01:23:52;102684.69;;;13.90;51.60
29941;BME280;16801;53.562;10.038;2023-05-20T01:27:14;102697.72;;;13.85;52.09
29941;BME280;16801;53.562;10.038;2023-05-20T01:30:38;102693.03;;;13.87;51.74
29941;BME280;16801;53.562;10.038;2023-05-20T01:34:01;102684.16;;;13.85;51.85
29941;BME280;16801;53.562;10.038;2023-05-20T01:37:23;102685.16;;;13.84;52.55
29941;BME280;16801;53.562;10.038;2023-05-20T01:40:46;102687.22;;;13.81;52.31
29941;BME280;16801;53.562;10.038;2023-05-20T01:44:08;102684.53;;;13.81;52.40
29941;BME280;16801;53.562;10.038;2023-05-20T01:47:29;102693.50;;;13.81;52.64
29941;BME280;16801;53.562;10.038;2023-05-20T01:50:50;102694.72;;;13.64;53.21
29941;BME280;16801;53.562;10.038;2023-05-20T01:54:11;102693.34;;;13.59;53.18
29941;BME280;16801;53.562;10.038;2023-05-20T01:57:34;102697.69;;;13.61;53.44
29941;BME280;16801;53.562;10.038;2023-05-20T02:00:57;102691.19;;;13.64;53.29
29941;BME280;16801;53.562;10.038;2023-05-20T02:04:18;102691.38;;;13.61;53.65
29941;BME280;16801;53.562;10.038;2023-05-20T02:07:41;102689.31;;;13.52;54.05
29941;BME280;16801;53.562;10.038;2023-05-20T02:11:01;102693.03;;;13.51;54.64
29941;BME280;16801;53.562;10.038;2023-05-20T02:14:23;102692.72;;;13.43;54.98
29941;BME280;16801;53.562;10.038;2023-05-20T02:17:45;102684.59;;;13.43;56.18
29941;BME280;16801;53.562;10.038;2023-05-20T02:21:07;102689.69;;;13.35;56.64
29941;BME280;16801;53.562;10.038;2023-05-20T02:24:28;102693.03;;;13.38;57.29
29941;BME280;16801;53.562;10.038;2023-05-20T02:27:49;102686.56;;;13.41;58.08
29941;BME280;16801;53.562;10.038;2023-05-20T02:31:11;102674.19;;;13.37;58.56
29941;BME280;16801;53.562;10.038;2023-05-20T02:34:32;102669.88;;;13.34;59.33
29941;BME280;16801;53.562;10.038;2023-05-20T02:37:53;102667.03;;;13.36;59.69
29941;BME280;16801;53.562;10.038;2023-05-20T02:41:14;102664.56;;;13.33;60.11
29941;BME280;16801;53.562;10.038;2023-05-20T02:44:38;102669.63;;;13.37;60.43
29941;BME280;16801;53.562;10.038;2023-05-20T02:48:00;102666.94;;;13.25;60.66
29941;BME280;16801;53.562;10.038;2023-05-20T02:51:22;102669.44;;;13.28;60.89
29941;BME280;16801;53.562;10.038;2023-05-20T02:54:46;102665.34;;;13.22;61.45
29941;BME280;16801;53.562;10.038;2023-05-20T02:58:07;102673.66;;;13.19;62.02
29941;BME280;16801;53.562;10.038;2023-05-20T03:01:28;102664.47;;;13.22;62.26
29941;BME280;16801;53.562;10.038;2023-05-20T03:04:50;102666.41;;;13.20;62.22
29941;BME280;16801;53.562;10.038;2023-05-20T03:08:13;102674.97;;;13.26;62.40
29941;BME280;16801;53.562;10.038;2023-05-20T03:11:34;102683.28;;;13.23;62.72
29941;BME280;16801;53.562;10.038;2023-05-20T03:14:55;102690.91;;;13.18;63.40
29941;BME280;16801;53.562;10.038;2023-05-20T03:18:19;102680.06;;;13.18;63.01
29941;BME280;16801;53.562;10.038;2023-05-20T03:21:42;102678.75;;;13.24;63.23
29941;BME280;16801;53.562;10.038;2023-05-20T03:25:04;102681.03;;;13.17;63.73
29941;BME280;16801;53.562;10.038;2023-05-20T03:28:25;102675.06;;;13.12;63.99
29941;BME280;16801;53.562;10.038;2023-05-20T03:31:46;102674.97;;;13.14;64.27
29941;BME280;16801;53.562;10.038;2023-05-20T03:35:07;102672.34;;;13.12;64.66
29941;BME280;16801;53.562;10.038;2023-05-20T03:38:30;102670.19;;;13.05;64.91
29941;BME280;16801;53.562;10.038;2023-05-20T03:41:51;102674.72;;;13.04;65.05
29941;BME280;16801;53.562;10.038;2023-05-20T03:45:12;102675.59;;;13.05;65.69
29941;BME280;16801;53.562;10.038;2023-05-20T03:48:41;102666.69;;;13.03;65.40
29941;BME280;16801;53.562;10.038;2023-05-20T03:52:02;102670.75;;;13.10;65.64
29941;BME280;16801;53.562;10.038;2023-05-20T03:55:24;102666.94;;;13.12;66.43
29941;BME280;16801;53.562;10.038;2023-05-20T03:58:46;102664.56;;;13.08;66.43
29941;BME280;16801;53.562;10.038;2023-05-20T04:02:08;102667.50;;;13.05;66.78
29941;BME280;16801;53.562;10.038;2023-05-20T04:05:29;102667.69;;;13.14;66.60
29941;BME280;16801;53.562;10.038;2023-05-20T04:08:51;102671.16;;;13.29;66.89
29941;BME280;16801;53.562;10.038;2023-05-20T04:12:15;102675.72;;;13.28;67.20
29941;BME280;16801;53.562;10.038;2023-05-20T04:15:38;102679.19;;;13.30;67.87
29941;BME280;16801;53.562;10.038;2023-05-20T04:19:00;102683.94;;;13.39;67.81
29941;BME280;16801;53.562;10.038;2023-05-20T04:22:21;102681.56;;;13.35;68.30
29941;BME280;16801;53.562;10.038;2023-05-20T04:25:42;102676.97;;;13.48;68.27
29941;BME280;16801;53.562;10.038;2023-05-20T04:29:04;102682.31;;;13.37;68.40
29941;BME280;16801;53.562;10.038;2023-05-20T04:32:26;102679.69;;;13.48;69.11
29941;BME280;16801;53.562;10.038;2023-05-20T04:35:47;102682.94;;;13.53;68.67
29941;BME280;16801;53.562;10.038;2023-05-20T04:39:08;102671.44;;;13.62;69.03
29941;BME280;16801;53.562;10.038;2023-05-20T04:42:29;102682.28;;;13.62;69.02
29941;BME280;16801;53.562;10.038;2023-05-20T04:45:51;102667.66;;;13.52;69.24
29941;BME280;16801;53.562;10.038;2023-05-20T04:49:12;102666.03;;;13.62;69.34
29941;BME280;16801;53.562;10.038;2023-05-20T04:52:34;102667.19;;;13.71;69.44
29941;BME280;16801;53.562;10.038;2023-05-20T04:55:55;102675.53;;;13.68;69.61
29941;BME280;16801;53.562;10.038;2023-05-20T04:59:16;102676.47;;;13.79;69.38
29941;BME280;16801;53.562;10.038;2023-05-20T05:02:39;102677.19;;;13.94;69.37
29941;BME280;16801;53.562;10.038;2023-05-20T05:05:59;102675.50;;;13.80;69.72
29941;BME280;16801;53.562;10.038;2023-05-20T05:09:21;102679.81;;;13.95;69.61
29941;BME280;16801;53.562;10.038;2023-05-20T05:12:42;102665.38;;;13.95;69.73
29941;BME280;16801;53.562;10.038;2023-05-20T05:16:03;102666.25;;;13.95;69.93
29941;BME280;16801;53.562;10.038;2023-05-20T05:19:26;102671.78;;;13.94;69.69
29941;BME280;16801;53.562;10.038;2023-05-20T05:22:47;102673.41;;;13.96;69.84
29941;BME280;16801;53.562;10.038;2023-05-20T05:26:09;102673.84;;;13.90;70.07
29941;BME280;16801;53.562;10.038;2023-05-20T05:29:30;102679.16;;;13.92;70.11
29941;BME280;16801;53.562;10.038;2023-05-20T05:32:52;102672.72;;;14.05;69.83
29941;BME280;16801;53.562;10.038;2023-05-20T05:36:14;102673.41;;;13.96;69.94
29941;BME280;16801;53.562;10.038;2023-05-20T05:39:35;102680.69;;;14.19;69.69
29941;BME280;16801;53.562;10.038;2023-05-20T05:42:57;102677.69;;;14.11;69.97
29941;BME280;16801;53.562;10.038;2023-05-20T05:46:18;102680.03;;;14.28;69.57
29941;BME280;16801;53.562;10.038;2023-05-20T05:49:39;102678.69;;;14.34;69.16
29941;BME280;16801;53.562;10.038;2023-05-20T05:53:01;102683.03;;;14.36;69.16
29941;BME280;16801;53.562;10.038;2023-05-20T05:56:23;102684.41;;;14.42;68.79
29941;BME280;16801;53.562;10.038;2023-05-20T05:59:44;102678.09;;;14.41;68.59
29941;BME280;16801;53.562;10.038;2023-05-20T06:03:05;102677.66;;;14.48;68.49
29941;BME280;16801;53.562;10.038;2023-05-20T06:06:29;102669.00;;;14.43;68.50
29941;BME280;16801;53.562;10.038;2023-05-20T06:09:52;102675.91;;;14.47;68.47
29941;BME280;16801;53.562;10.038;2023-05-20T06:13:12;102671.53;;;14.68;68.26
29941;BME280;16801;53.562;10.038;2023-05-20T06:16:33;102666.78;;;14.82;67.87
29941;BME280;16801;53.562;10.038;2023-05-20T06:19:54;102669.88;;;14.89;67.56
29941;BME280;16801;53.562;10.038;2023-05-20T06:23:15;102670.78;;;15.11;67.18
29941;BME280;16801;53.562;10.038;2023-05-20T06:26:48;102666.69;;;15.17;66.59
29941;BME280;16801;53.562;10.038;2023-05-20T06:30:10;102659.81;;;15.24;66.04
29941;BME280;16801;53.562;10.038;2023-05-20T06:33:31;102653.66;;;15.44;65.55
29941;BME280;16801;53.562;10.038;2023-05-20T06:36:57;102651.06;;;15.54;65.21
29941;BME280;16801;53.562;10.038;2023-05-20T06:40:18;102649.41;;;15.73;64.77
29941;BME280;16801;53.562;10.038;2023-05-20T06:43:40;102653.06;;;16.06;64.17
29941;BME280;16801;53.562;10.038;2023-05-20T06:47:04;102647.56;;;15.85;63.94
29941;BME280;16801;53.562;10.038;2023-05-20T06:50:25;102635.50;;;16.10;63.54
29941;BME280;16801;53.562;10.038;2023-05-20T06:53:47;102636.66;;;16.28;63.22
29941;BME280;16801;53.562;10.038;2023-05-20T06:57:09;102641.22;;;16.27;62.50
29941;BME280;16801;53.562;10.038;2023-05-20T07:00:31;102633.41;;;16.34;62.34
29941;BME280;16801;53.562;10.038;2023-05-20T07:03:54;102624.78;;;16.29;62.24
29941;BME280;16801;53.562;10.038;2023-05-20T07:07:15;102627.84;;;16.35;61.99
29941;BME280;16801;53.562;10.038;2023-05-20T07:10:37;102629.16;;;16.52;61.96
29941;BME280;16801;53.562;10.038;2023-05-20T07:13:57;102636.63;;;16.70;61.23
29941;BME280;16801;53.562;10.038;2023-05-20T07:17:21;102628.84;;;16.87;60.89
29941;BME280;16801;53.562;10.038;2023-05-20T07:20:43;102630.50;;;16.78;61.16
29941;BME280;16801;53.562;10.038;2023-05-20T07:24:15;102630.06;;;17.03;60.83
29941;BME280;16801;53.562;10.038;2023-05-20T07:27:36;102637.78;;;16.98;60.63
29941;BME280;16801;53.562;10.038;2023-05-20T07:30:57;102641.22;;;17.00;60.24
29941;BME280;16801;53.562;10.038;2023-05-20T07:34:23;102623.81;;;17.12;59.85
29941;BME280;16801;53.562;10.038;2023-05-20T07:37:44;102626.97;;;17.17;59.79
29941;BME280;16801;53.562;10.038;2023-05-20T07:41:05;102623.72;;;17.23;59.90
29941;BME280;16801;53.562;10.038;2023-05-20T07:44:27;102627.84;;;17.48;59.37
29941;BME280;16801;53.562;10.038;2023-05-20T07:47:48;102636.13;;;17.37;59.23
29941;BME280;16801;53.562;10.038;2023-05-20T07:51:13;102622.06;;;17.72;59.24
29941;BME280;16801;53.562;10.038;2023-05-20T07:54:34;102618.66;;;17.98;58.49
29941;BME280;16801;53.562;10.038;2023-05-20T07:57:56;102615.41;;;18.33;57.75
29941;BME280;16801;53.562;10.038;2023-05-20T08:01:17;102615.34;;;17.95;57.23
29941;BME280;16801;53.562;10.038;2023-05-20T08:04:38;102620.41;;;17.90;56.66
29941;BME280;16801;53.562;10.038;2023-05-20T08:08:01;102618.00;;;18.25;56.30
29941;BME280;16801;53.562;10.038;2023-05-20T08:11:28;102618.81;;;17.87;56.02
29941;BME280;16801;53.562;10.038;2023-05-20T08:14:52;102620.00;;;18.23;55.74
29941;BME280;16801;53.562;10.038;2023-05-20T08:18:14;102613.53;;;18.53;55.30
29941;BME280;16801;53.562;10.038;2023-05-20T08:21:34;102614.25;;;18.64;54.56
29941;BME280;16801;53.562;10.038;2023-05-20T08:24:57;102606.75;;;18.85;54.11
29941;BME280;16801;53.562;10.038;2023-05-20T08:28:18;102608.31;;;18.78;53.60
29941;BME280;16801;53.562;10.038;2023-05-20T08:31:40;102603.06;;;18.48;52.86
29941;BME280;16801;53.562;10.038;2023-05-20T08:35:02;102600.28;;;18.38;53.07
29941;BME280;16801;53.562;10.038;2023-05-20T08:38:23;102606.22;;;18.63;52.63
29941;BME280;16801;53.562;10.038;2023-05-20T08:41:46;102594.53;;;18.70;52.37
29941;BME280;16801;53.562;10.038;2023-05-20T08:45:10;102591.22;;;18.76;52.06
29941;BME280;16801;53.562;10.038;2023-05-20T08:48:32;102585.84;;;19.31;51.58
29941;BME280;16801;53.562;10.038;2023-05-20T08:51:53;102593.19;;;19.40;50.99
29941;BME280;16801;53.562;10.038;2023-05-20T08:55:17;102584.41;;;19.36;51.19
29941;BME280;16801;53.562;10.038;2023-05-20T08:58:43;102590.56;;;19.65;50.93
29941;BME280;16801;53.562;10.038;2023-05-20T09:02:05;102584.44;;;19.81;49.46
29941;BME280;16801;53.562;10.038;2023-05-20T09:05:27;102586.47;;;19.79;49.71
29941;BME280;16801;53.562;10.038;2023-05-20T09:08:50;102578.06;;;19.90;49.89
29941;BME280;16801;53.562;10.038;2023-05-20T09:12:12;102583.75;;;19.52;49.93
29941;BME280;16801;53.562;10.038;2023-05-20T09:15:35;102587.88;;;20.01;49.25
29941;BME280;16801;53.562;10.038;2023-05-20T09:18:56;102578.66;;;20.02;48.83
29941;BME280;16801;53.562;10.038;2023-05-20T09:22:21;102566.56;;;20.22;48.62
29941;BME280;16801;53.562;10.038;2023-05-20T09:25:42;102575.06;;;19.83;48.81
29941;BME280;16801;53.562;10.038;2023-05-20T09:29:03;102560.66;;;19.37;49.58
29941;BME280;16801;53.562;10.038;2023-05-20T09:32:25;102562.13;;;19.76;49.05
29941;BME280;16801;53.562;10.038;2023-05-20T09:35:48;102553.34;;;19.55;49.14
29941;BME280;16801;53.562;10.038;2023-05-20T09:39:12;102545.69;;;19.31;49.52
29941;BME280;16801;53.562;10.038;2023-05-20T09:42:37;102559.22;;;19.60;49.50
29941;BME280;16801;53.562;10.038;2023-05-20T09:46:01;102551.59;;;19.27;49.79
29941;BME280;16801;53.562;10.038;2023-05-20T09:49:24;102556.78;;;18.93;50.17
29941;BME280;16801;53.562;10.038;2023-05-20T09:52:47;102556.63;;;18.94;50.30
29941;BME280;16801;53.562;10.038;2023-05-20T09:56:08;102544.84;;;18.94;50.07
29941;BME280;16801;53.562;10.038;2023-05-20T09:59:29;102546.41;;;18.96;50.27
29941;BME280;16801;53.562;10.038;2023-05-20T10:02:51;102549.56;;;18.65;50.74
29941;BME280;16801;53.562;10.038;2023-05-20T10:06:31;102550.50;;;18.73;50.64
29941;BME280;16801;53.562;10.038;2023-05-20T10:10:04;102541.59;;;18.81;50.59
29941;BME280;16801;53.562;10.038;2023-05-20T10:13:44;102538.53;;;18.93;50.44
29941;BME280;16801;53.562;10.038;2023-05-20T10:17:12;102538.53;;;18.84;50.82
29941;BME280;16801;53.562;10.038;2023-05-20T10:20:44;102537.97;;;18.80;51.00
29941;BME280;16801;53.562;10.038;2023-05-20T10:24:08;102525.00;;;18.92;50.47
29941;BME280;16801;53.562;10.038;2023-05-20T10:27:29;102528.22;;;19.14;50.59
29941;BME280;16801;53.562;10.038;2023-05-20T10:30:50;102527.13;;;18.98;50.56
29941;BME280;16801;53.562;10.038;2023-05-20T10:34:14;102524.88;;;18.84;50.72
29941;BME280;16801;53.562;10.038;2023-05-20T10:37:41;102530.81;;;18.79;50.98
29941;BME280;16801;53.562;10.038;2023-05-20T10:41:08;102512.56;;;18.70;51.16
29941;BME280;16801;53.562;10.038;2023-05-20T10:44:39;102520.59;;;18.81;51.28
29941;BME280;16801;53.562;10.038;2023-05-20T10:48:00;102507.41;;;19.31;50.54
29941;BME280;16801;53.562;10.038;2023-05-20T10:51:21;102514.16;;;19.37;50.57
29941;BME280;16801;53.562;10.038;2023-05-20T10:54:42;102506.59;;;19.48;50.66
29941;BME280;16801;53.562;10.038;2023-05-20T10:58:05;102507.31;;;19.68;49.96
29941;BME280;16801;53.562;10.038;2023-05-20T11:01:26;102503.94;;;20.09;49.38
29941;BME280;16801;53.562;10.038;2023-05-20T11:04:47;102502.88;;;20.02;48.96
29941;BME280;16801;53.562;10.038;2023-05-20T11:08:09;102491.97;;;19.57;49.58
29941;BME280;16801;53.562;10.038;2023-05-20T11:11:30;102491.72;;;19.24;50.33
29941;BME280;16801;53.562;10.038;2023-05-20T11:14:52;102492.50;;;19.16;50.53
29941;BME280;16801;53.562;10.038;2023-05-20T11:18:13;102489.53;;;19.37;50.41
29941;BME280;16801;53.562;10.038;2023-05-20T11:21:41;102488.38;;;19.30;50.99
29941;BME280;16801;53.562;10.038;2023-05-20T11:25:04;102485.97;;;19.27;50.62
29941;BME280;16801;53.562;10.038;2023-05-20T11:28:25;102483.31;;;19.62;50.24
29941;BME280;16801;53.562;10.038;2023-05-20T11:31:49;102482.22;;;19.72;50.04
29941;BME280;16801;53.562;10.038;2023-05-20T11:35:20;102484.47;;;19.32;50.04
29941;BME280;16801;53.562;10.038;2023-05-20T11:38:44;102471.28;;;19.00;50.41
29941;BME280;16801;53.562;10.038;2023-05-20T11:42:05;102469.88;;;18.96;50.67
29941;BME280;16801;53.562;10.038;2023-05-20T11:45:38;102475.81;;;18.92;51.33
29941;BME280;16801;53.562;10.038;2023-05-20T11:49:00;102474.63;;;18.94;51.12
29941;BME280;16801;53.562;10.038;2023-05-20T11:52:21;102473.88;;;18.65;51.51
29941;BME280;16801;53.562;10.038;2023-05-20T11:55:46;102481.69;;;18.51;52.06
29941;BME280;16801;53.562;10.038;2023-05-20T11:59:08;102476.41;;;18.49;52.44
29941;BME280;16801;53.562;10.038;2023-05-20T12:02:29;102483.16;;;18.45;52.46
29941;BME280;16801;53.562;10.038;2023-05-20T12:05:51;102475.69;;;18.28;52.40
29941;BME280;16801;53.562;10.038;2023-05-20T12:09:12;102470.31;;;18.65;52.45
29941;BME280;16801;53.562;10.038;2023-05-20T12:12:33;102464.19;;;19.07;51.27
29941;BME280;16801;53.562;10.038;2023-05-20T12:15:55;102466.97;;;19.52;50.74
29941;BME280;16801;53.562;10.038;2023-05-20T12:19:16;102465.88;;;19.45;50.34
29941;BME280;16801;53.562;10.038;2023-05-20T12:22:38;102459.44;;;18.82;51.80
29941;BME280;16801;53.562;10.038;2023-05-20T12:25:59;102458.13;;;18.86;52.23
29941;BME280;16801;53.562;10.038;2023-05-20T12:29:20;102454.84;;;19.28;51.25
29941;BME280;16801;53.562;10.038;2023-05-20T12:32:41;102447.00;;;19.95;50.22
29941;BME280;16801;53.562;10.038;2023-05-20T12:36:03;102448.53;;;20.33;49.39
29941;BME280;16801;53.562;10.038;2023-05-20T12:39:27;102440.72;;;20.03;48.78
29941;BME280;16801;53.562;10.038;2023-05-20T12:42:47;102450.13;;;20.00;49.39
29941;BME280;16801;53.562;10.038;2023-05-20T12:46:08;102452.72;;;20.02;49.29
29941;BME280;16801;53.562;10.038;2023-05-20T12:49:29;102450.06;;;19.57;50.13
29941;BME280;16801;53.562;10.038;2023-05-20T12:52:50;102447.19;;;19.76;50.17
29941;BME280;16801;53.562;10.038;2023-05-20T12:56:12;102440.16;;;19.56;50.39
29941;BME280;16801;53.562;10.038;2023-05-20T12:59:33;102441.78;;;19.49;50.55
29941;BME280;16801;53.562;10.038;2023-05-20T13:02:53;102443.59;;;19.58;50.18
29941;BME280;16801;53.562;10.038;2023-05-20T13:09:50;102429.34;;;19.72;50.10
29941;BME280;16801;53.562;10.038;2023-05-20T13:13:12;102424.63;;;19.82;50.04
29941;BME280;16801;53.562;10.038;2023-05-20T13:16:40;102409.44;;;19.62;50.50
29941;BME280;16801;53.562;10.038;2023-05-20T13:20:00;102403.69;;;19.20;51.20
29941;BME280;16801;53.562;10.038;2023-05-20T13:23:21;102402.66;;;19.48;50.98
29941;BME280;16801;53.562;10.038;2023-05-20T13:26:42;102404.66;;;20.07;50.19
29941;BME280;16801;53.562;10.038;2023-05-20T13:30:06;102402.00;;;21.16;48.40
29941;BME280;16801;53.562;10.038;2023-05-20T13:36:48;102394.34;;;21.44;46.86
29941;BME280;16801;53.562;10.038;2023-05-20T13:40:09;102405.63;;;20.83;48.29
29941;BME280;16801;53.562;10.038;2023-05-20T13:43:30;102398.75;;;19.94;49.79
29941;BME280;16801;53.562;10.038;2023-05-20T13:46:53;102392.19;;;19.87;50.21
29941;BME280;16801;53.562;10.038;2023-05-20T13:50:16;102392.59;;;19.74;51.07
29941;BME280;16801;53.562;10.038;2023-05-20T13:53:37;102389.56;;;19.42;51.42
29941;BME280;16801;53.562;10.038;2023-05-20T13:56:58;102368.84;;;19.75;51.05
29941;BME280;16801;53.562;10.038;2023-05-20T14:00:19;102370.81;;;19.90;50.97
29941;BME280;16801;53.562;10.038;2023-05-20T14:03:42;102363.72;;;20.23;50.05
29941;BME280;16801;53.562;10.038;2023-05-20T14:07:03;102375.09;;;19.67;50.66
29941;BME280;16801;53.562;10.038;2023-05-20T14:10:24;102371.13;;;19.44;51.18
29941;BME280;16801;53.562;10.038;2023-05-20T14:13:45;102364.94;;;19.25;51.82
29941;BME280;16801;53.562;10.038;2023-05-20T14:17:06;102363.91;;;19.26;52.08
29941;BME280;16801;53.562;10.038;2023-05-20T14:20:28;102354.88;;;19.43;52.16
29941;BME280;16801;53.562;10.038;2023-05-20T14:23:49;102357.97;;;19.65;51.60
29941;BME280;16801;53.562;10.038;2023-05-20T14:27:10;102348.97;;;19.73;51.63
29941;BME280;16801;53.562;10.038;2023-05-20T14:30:32;102344.38;;;19.56;51.91
29941;BME280;16801;53.562;10.038;2023-05-20T14:33:53;102333.53;;;19.46;52.48
29941;BME280;16801;53.562;10.038;2023-05-20T14:37:15;102331.78;;;19.28;52.98
29941;BME280;16801;53.562;10.038;2023-05-20T14:40:36;102331.00;;;19.53;52.65
29941;BME280;16801;53.562;10.038;2023-05-20T14:43:56;102319.19;;;19.70;52.51
29941;BME280;16801;53.562;10.038;2023-05-20T14:47:17;102319.38;;;19.51;52.86
29941;BME280;16801;53.562;10.038;2023-05-20T14:50:40;102319.94;;;19.37;52.99
29941;BME280;16801;53.562;10.038;2023-05-20T14:54:02;102311.91;;;19.35;53.27
29941;BME280;16801;53.562;10.038;2023-05-20T14:57:24;102307.50;;;19.42;53.36
29941;BME280;16801;53.562;10.038;2023-05-20T15:00:45;102304.13;;;19.31;53.83
29941;BME280;16801;53.562;10.038;2023-05-20T15:04:06;102307.91;;;19.12;55.01
29941;BME280;16801;53.562;10.038;2023-05-20T15:07:27;102306.88;;;18.95;56.18
29941;BME280;16801;53.562;10.038;2023-05-20T15:10:49;102299.13;;;18.73;57.42
29941;BME280;16801;53.562;10.038;2023-05-20T15:14:10;102299.41;;;18.53;57.73
29941;BME280;16801;53.562;10.038;2023-05-20T15:17:30;102295.31;;;18.84;57.28
29941;BME280;16801;53.562;10.038;2023-05-20T15:20:51;102309.13;;;18.82;57.33
29941;BME280;16801;53.562;10.038;2023-05-20T15:24:12;102299.38;;;18.80;57.64
29941;BME280;16801;53.562;10.038;2023-05-20T15:27:34;102298.44;;;18.89;57.09
29941;BME280;16801;53.562;10.038;2023-05-20T15:30:55;102299.88;;;19.10;56.98
29941;BME280;16801;53.562;10.038;2023-05-20T15:34:17;102295.22;;;19.29;56.42
29941;BME280;16801;53.562;10.038;2023-05-20T15:37:38;102282.13;;;18.97;56.93
29941;BME280;16801;53.562;10.038;2023-05-20T15:40:58;102292.50;;;18.76;57.69
29941;BME280;16801;53.562;10.038;2023-05-20T15:44:20;102286.78;;;18.69;58.36
29941;BME280;16801;53.562;10.038;2023-05-20T15:47:42;102270.56;;;18.68;58.85
29941;BME280;16801;53.562;10.038;2023-05-20T15:51:03;102282.56;;;18.57;59.42
29941;BME280;16801;53.562;10.038;2023-05-20T15:54:24;102276.00;;;18.68;59.34
29941;BME280;16801;53.562;10.038;2023-05-20T15:57:45;102282.72;;;18.56;59.57
29941;BME280;16801;53.562;10.038;2023-05-20T16:01:07;102272.03;;;18.62;59.73
29941;BME280;16801;53.562;10.038;2023-05-20T16:04:28;102266.50;;;18.72;59.34
29941;BME280;16801;53.562;10.038;2023-05-20T16:07:51;102264.63;;;18.72;59.26
29941;BME280;16801;53.562;10.038;2023-05-20T16:11:12;102259.94;;;18.65;59.53
29941;BME280;16801;53.562;10.038;2023-05-20T16:14:33;102260.25;;;18.34;60.10
29941;BME280;16801;53.562;10.038;2023-05-20T16:17:55;102257.56;;;18.25;60.48
29941;BME280;16801;53.562;10.038;2023-05-20T16:21:15;102249.06;;;18.28;60.51
29941;BME280;16801;53.562;10.038;2023-05-20T16:24:37;102257.34;;;18.36;60.70
29941;BME280;16801;53.562;10.038;2023-05-20T16:27:57;102253.75;;;18.45;60.44
29941;BME280;16801;53.562;10.038;2023-05-20T16:31:22;102253.78;;;18.35;60.81
29941;BME280;16801;53.562;10.038;2023-05-20T16:34:45;102252.84;;;18.54;60.42
29941;BME280;16801;53.562;10.038;2023-05-20T16:38:07;102244.16;;;18.31;60.84
29941;BME280;16801;53.562;10.038;2023-05-20T16:41:27;102240.53;;;18.13;61.36
29941;BME280;16801;53.562;10.038;2023-05-20T16:44:49;102237.53;;;18.07;61.46
29941;BME280;16801;53.562;10.038;2023-05-20T16:48:11;102240.38;;;18.15;61.47
29941;BME280;16801;53.562;10.038;2023-05-20T16:51:33;102241.22;;;18.15;61.68
29941;BME280;16801;53.562;10.038;2023-05-20T16:54:54;102237.19;;;18.19;61.54
29941;BME280;16801;53.562;10.038;2023-05-20T16:58:17;102241.31;;;18.23;61.62
29941;BME280;16801;53.562;10.038;2023-05-20T17:01:38;102234.31;;;18.21;61.44
29941;BME280;16801;53.562;10.038;2023-05-20T17:04:59;102241.66;;;18.20;61.45
29941;BME280;16801;53.562;10.038;2023-05-20T17:08:21;102245.47;;;18.00;61.20
29941;BME280;16801;53.562;10.038;2023-05-20T17:11:42;102245.69;;;17.89;62.29
29941;BME280;16801;53.562;10.038;2023-05-20T17:15:03;102236.38;;;17.82;62.37
29941;BME280;16801;53.562;10.038;2023-05-20T17:18:24;102240.97;;;18.09;62.22
29941;BME280;16801;53.562;10.038;2023-05-20T17:21:45;102241.13;;;18.07;62.21
29941;BME280;16801;53.562;10.038;2023-05-20T17:25:08;102236.19;;;17.93;62.43
29941;BME280;16801;53.562;10.038;2023-05-20T17:28:29;102237.88;;;17.94;62.64
29941;BME280;16801;53.562;10.038;2023-05-20T17:31:50;102227.28;;;17.91;62.62